Time;durP1;ratioP1;P1;durP2;ratioP2;P2;SDS_P1;SDS_P2;PMS_P1;PMS_P2;Temp;Humidity;BMP_temperature;BMP_pressure;BME280_temperature;BME280_humidity;BME280_pressure;Samples;Min_cycle;Max_cycle;Signal;HPM_P1;HPM_P2
2021/05/12 00:01:08;;;;;;;2.22;1.77;;;13.30;91.70;;;;;;5018597;28;20026;-69
2021/05/12 00:03:36;;;;;;;3.67;1.92;;;13.30;91.50;;;;;;5035579;28;20112;-70
2021/05/12 00:06:02;;;;;;;2.70;1.23;;;13.30;91.50;;;;;;5018137;28;20083;-69
2021/05/12 00:08:28;;;;;;;2.03;1.40;;;13.30;91.40;;;;;;5035504;28;20033;-69
2021/05/12 00:10:53;;;;;;;2.80;1.30;;;13.20;91.30;;;;;;5035782;28;20079;-69
2021/05/12 00:13:19;;;;;;;3.05;1.15;;;13.20;91.30;;;;;;5035070;28;20438;-70
2021/05/12 00:15:44;;;;;;;2.15;1.30;;;13.20;91.40;;;;;;5035765;28;20494;-69
2021/05/12 00:18:12;;;;;;;1.60;1.02;;;13.20;91.20;;;;;;5034689;28;20040;-69
2021/05/12 00:20:39;;;;;;;4.72;1.20;;;13.20;91.20;;;;;;5017516;28;20029;-70
2021/05/12 00:23:11;;;;;;;3.20;1.30;;;13.20;91.00;;;;;;5018172;28;20025;-69
2021/05/12 00:25:37;;;;;;;2.78;1.20;;;13.20;91.30;;;;;;5033993;28;20033;-69
2021/05/12 00:28:03;;;;;;;1.73;1.20;;;13.20;91.00;;;;;;5034570;28;20025;-69
2021/05/12 00:30:29;;;;;;;4.43;1.23;;;13.10;91.10;;;;;;5035103;28;20036;-70
2021/05/12 00:32:55;;;;;;;2.28;1.10;;;13.10;91.10;;;;;;5035695;28;20025;-69
2021/05/12 00:35:22;;;;;;;1.52;1.27;;;13.10;91.00;;;;;;5033683;28;20386;-70
2021/05/12 00:37:47;;;;;;;2.42;1.10;;;13.10;91.00;;;;;;5035607;28;20056;-69
2021/05/12 00:40:14;;;;;;;1.73;1.20;;;13.10;91.10;;;;;;5017822;28;20083;-69
2021/05/12 00:42:40;;;;;;;1.73;0.88;;;13.10;90.90;;;;;;5017727;28;20033;-69
2021/05/12 00:45:10;;;;;;;2.30;1.00;;;13.10;91.00;;;;;;5017569;28;20025;-69
2021/05/12 00:47:35;;;;;;;2.78;1.42;;;13.00;90.90;;;;;;5000322;28;20058;-70
2021/05/12 00:50:03;;;;;;;1.88;1.10;;;13.00;91.00;;;;;;5017631;28;20025;-69
2021/05/12 00:52:29;;;;;;;1.35;1.10;;;13.00;91.00;;;;;;5016933;28;20382;-69
2021/05/12 00:54:55;;;;;;;3.17;1.20;;;13.00;90.90;;;;;;5033946;28;20026;-69
2021/05/12 00:57:21;;;;;;;1.45;1.15;;;13.00;90.80;;;;;;5015487;28;20029;-69
2021/05/12 00:59:49;;;;;;;3.38;1.35;;;13.00;90.80;;;;;;5017443;28;20454;-69
2021/05/12 01:02:15;;;;;;;2.63;1.50;;;13.10;90.80;;;;;;5017401;28;20079;-70
2021/05/12 01:04:42;;;;;;;1.52;1.20;;;13.10;90.90;;;;;;5016840;28;20117;-70
2021/05/12 01:07:07;;;;;;;3.35;1.60;;;13.10;90.80;;;;;;5035036;28;20079;-69
2021/05/12 01:09:33;;;;;;;2.08;1.48;;;13.10;90.90;;;;;;5016657;28;20025;-69
2021/05/12 01:11:59;;;;;;;3.13;1.40;;;13.10;91.00;;;;;;5016895;28;20080;-69
2021/05/12 01:14:25;;;;;;;2.78;1.50;;;13.10;91.00;;;;;;5033074;28;20025;-69
2021/05/12 01:16:51;;;;;;;1.80;1.38;;;13.10;91.00;;;;;;5035120;28;20454;-69
2021/05/12 01:19:18;;;;;;;3.67;1.55;;;13.10;91.10;;;;;;5034450;28;20036;-73
2021/05/12 01:21:44;;;;;;;2.38;1.75;;;13.10;91.10;;;;;;5034870;28;20079;-70
2021/05/12 01:24:10;;;;;;;2.85;1.60;;;13.10;91.10;;;;;;5034758;28;20029;-69
2021/05/12 01:26:37;;;;;;;1.83;1.65;;;13.10;91.10;;;;;;5016046;28;20056;-70
2021/05/12 01:29:04;;;;;;;2.78;1.52;;;13.10;90.90;;;;;;5034665;28;20026;-69
2021/05/12 01:31:42;;;;;;;4.70;2.13;;;13.00;90.90;;;;;;5033976;28;20026;-69
2021/05/12 01:34:17;;;;;;;3.92;1.42;;;13.00;90.90;;;;;;5017071;28;20065;-69
2021/05/12 01:36:44;;;;;;;2.15;1.40;;;13.00;90.90;;;;;;5034706;28;20055;-69
2021/05/12 01:39:10;;;;;;;1.92;1.30;;;13.00;90.90;;;;;;5016390;28;20029;-69
2021/05/12 01:41:37;;;;;;;3.15;1.67;;;12.90;90.90;;;;;;5015804;28;20041;-69
2021/05/12 01:44:05;;;;;;;3.22;1.63;;;12.90;90.80;;;;;;5034364;28;20025;-69
2021/05/12 01:46:32;;;;;;;4.13;1.52;;;12.90;90.80;;;;;;5015405;28;20061;-69
2021/05/12 01:48:57;;;;;;;4.00;2.30;;;12.90;90.90;;;;;;5034282;28;20021;-69
2021/05/12 01:51:23;;;;;;;2.75;1.70;;;12.90;90.90;;;;;;5032396;28;20025;-70
2021/05/12 01:53:49;;;;;;;3.17;1.77;;;12.90;91.00;;;;;;5016426;28;20022;-69
2021/05/12 01:56:14;;;;;;;3.92;2.53;;;12.90;91.00;;;;;;5016281;28;20083;-69
2021/05/12 01:58:40;;;;;;;5.55;1.58;;;12.90;91.20;;;;;;5033739;28;20049;-69
2021/05/12 02:01:06;;;;;;;5.97;1.88;;;12.80;91.20;;;;;;5033728;28;20036;-69
2021/05/12 02:03:32;;;;;;;5.07;2.10;;;12.80;91.30;;;;;;5033336;28;20112;-69
2021/05/12 02:05:57;;;;;;;3.40;1.60;;;12.90;91.30;;;;;;5033863;28;20030;-69
2021/05/12 02:08:26;;;;;;;4.45;1.77;;;12.90;91.20;;;;;;5032883;28;20113;-69
2021/05/12 02:10:57;;;;;;;7.82;1.50;;;12.80;91.20;;;;;;5033817;28;20022;-69
2021/05/12 02:13:25;;;;;;;4.13;1.45;;;12.80;91.10;;;;;;5015417;28;20508;-70
2021/05/12 02:15:51;;;;;;;3.42;1.70;;;12.80;91.20;;;;;;5015680;28;20042;-69
2021/05/12 02:18:17;;;;;;;2.75;1.95;;;12.80;91.10;;;;;;5033739;28;20061;-69
2021/05/12 02:20:43;;;;;;;6.55;2.17;;;12.90;91.10;;;;;;5032782;28;20080;-69
2021/05/12 02:23:11;;;;;;;3.85;1.67;;;12.80;91.10;;;;;;5033619;28;20474;-69
2021/05/12 02:25:37;;;;;;;3.17;1.83;;;12.80;91.10;;;;;;5014945;28;20025;-69
2021/05/12 02:28:03;;;;;;;3.38;1.77;;;12.80;91.10;;;;;;5015817;28;20032;-69
2021/05/12 02:30:29;;;;;;;2.90;1.60;;;12.80;91.10;;;;;;5015192;28;20363;-69
2021/05/12 02:32:56;;;;;;;2.25;1.40;;;12.80;91.20;;;;;;5015673;28;20030;-69
2021/05/12 02:35:23;;;;;;;5.85;1.58;;;12.70;91.30;;;;;;5031492;28;20033;-72
2021/05/12 02:37:48;;;;;;;3.78;1.70;;;12.80;91.30;;;;;;5033723;28;20026;-69
2021/05/12 02:40:16;;;;;;;3.25;1.60;;;12.70;91.30;;;;;;5015671;28;20033;-69
2021/05/12 02:42:42;;;;;;;4.50;1.58;;;12.70;91.30;;;;;;5014883;28;20204;-69
2021/05/12 02:45:09;;;;;;;4.43;1.77;;;12.70;91.30;;;;;;5015466;28;20028;-69
2021/05/12 02:47:35;;;;;;;3.25;1.50;;;12.70;91.40;;;;;;5014259;28;20077;-69
2021/05/12 02:50:02;;;;;;;4.32;1.58;;;12.70;91.30;;;;;;5015538;28;20374;-69
2021/05/12 02:52:28;;;;;;;2.00;1.77;;;12.70;91.20;;;;;;5014635;28;20040;-69
2021/05/12 02:54:54;;;;;;;4.63;2.08;;;12.70;91.10;;;;;;5033092;28;20025;-70
2021/05/12 02:57:22;;;;;;;3.78;2.05;;;12.70;91.10;;;;;;5032985;28;20100;-69
2021/05/12 02:59:47;;;;;;;3.17;2.10;;;12.80;91.10;;;;;;5032336;28;20022;-69
2021/05/12 03:02:13;;;;;;;4.25;2.30;;;12.70;91.10;;;;;;5032645;28;20524;-69
2021/05/12 03:04:39;;;;;;;4.60;2.35;;;12.70;91.10;;;;;;5032320;28;20045;-69
2021/05/12 03:07:04;;;;;;;5.30;2.30;;;12.70;91.20;;;;;;5031584;28;20030;-69
2021/05/12 03:09:30;;;;;;;3.10;1.85;;;12.70;91.20;;;;;;5030969;28;20032;-69
2021/05/12 03:11:55;;;;;;;4.07;2.35;;;12.70;91.20;;;;;;5014746;28;20036;-69
2021/05/12 03:14:22;;;;;;;5.93;2.25;;;12.70;91.20;;;;;;5032768;28;20112;-69
2021/05/12 03:16:48;;;;;;;3.42;2.05;;;12.70;91.30;;;;;;5014356;28;20040;-69
2021/05/12 03:19:14;;;;;;;4.93;2.53;;;12.60;91.30;;;;;;5031948;28;20034;-69
2021/05/12 03:21:41;;;;;;;3.47;2.03;;;12.60;91.40;;;;;;5032077;28;20022;-70
2021/05/12 03:24:07;;;;;;;3.47;1.92;;;12.70;91.40;;;;;;5015033;28;20034;-69
2021/05/12 03:26:34;;;;;;;4.10;2.53;;;12.70;91.30;;;;;;5013986;28;20026;-70
2021/05/12 03:29:00;;;;;;;5.20;2.60;;;12.70;91.30;;;;;;5032279;28;20096;-69
2021/05/12 03:31:26;;;;;;;4.80;2.35;;;12.60;91.30;;;;;;5031664;28;20142;-70
2021/05/12 03:33:55;;;;;;;5.03;2.40;;;12.60;91.20;;;;;;5032398;28;20474;-70
2021/05/12 03:36:24;;;;;;;6.88;2.42;;;12.60;91.10;;;;;;5032140;28;20056;-69
2021/05/12 03:38:51;;;;;;;7.07;2.50;;;12.60;91.10;;;;;;5032130;28;20032;-69
2021/05/12 03:41:17;;;;;;;6.30;3.15;;;12.60;91.10;;;;;;5014722;28;20124;-69
2021/05/12 03:43:43;;;;;;;5.03;2.28;;;12.60;90.90;;;;;;5031842;28;20037;-69
2021/05/12 03:46:09;;;;;;;4.93;2.50;;;12.50;90.80;;;;;;5014200;28;20069;-69
2021/05/12 03:48:34;;;;;;;3.75;2.40;;;12.60;90.80;;;;;;5031464;28;20036;-69
2021/05/12 03:51:00;;;;;;;4.50;2.80;;;12.50;90.50;;;;;;5031085;28;20022;-69
2021/05/12 03:53:26;;;;;;;5.03;2.00;;;12.50;90.50;;;;;;5014329;28;20133;-72
2021/05/12 03:55:53;;;;;;;4.15;2.30;;;12.50;90.50;;;;;;5032016;28;20033;-70
2021/05/12 03:58:19;;;;;;;2.72;1.80;;;12.50;90.40;;;;;;5014563;28;20462;-69
2021/05/12 04:00:47;;;;;;;4.07;1.88;;;12.40;90.40;;;;;;5030371;28;20029;-69
2021/05/12 04:03:13;;;;;;;6.32;2.10;;;12.40;90.40;;;;;;5014657;28;20078;-69
2021/05/12 04:05:39;;;;;;;7.68;2.05;;;12.40;90.40;;;;;;5013614;28;20021;-69
2021/05/12 04:08:05;;;;;;;3.58;1.83;;;12.40;90.20;;;;;;5032462;28;20036;-69
2021/05/12 04:10:32;;;;;;;3.53;1.55;;;12.30;90.20;;;;;;5013931;28;20025;-70
2021/05/12 04:12:57;;;;;;;3.50;1.73;;;12.30;90.30;;;;;;5014342;28;20036;-69
2021/05/12 04:15:23;;;;;;;3.65;1.60;;;12.30;90.50;;;;;;5032123;28;20033;-69
2021/05/12 04:17:50;;;;;;;3.15;2.00;;;12.30;90.50;;;;;;5013847;28;20022;-69
2021/05/12 04:20:18;;;;;;;5.00;1.90;;;12.30;90.50;;;;;;5014403;28;20061;-69
2021/05/12 04:22:45;;;;;;;3.50;1.50;;;12.30;90.60;;;;;;5013737;28;20126;-69
2021/05/12 04:25:19;;;;;;;6.43;1.88;;;12.20;90.50;;;;;;5014263;28;20026;-69
2021/05/12 04:27:46;;;;;;;1.40;1.20;;;12.30;90.50;;;;;;5013749;28;20080;-69
2021/05/12 04:30:12;;;;;;;5.70;1.50;;;12.20;90.40;;;;;;5014699;28;20489;-69
2021/05/12 04:32:40;;;;;;;2.83;1.63;;;12.20;90.40;;;;;;5034794;28;20488;-69
2021/05/12 04:35:07;;;;;;;4.32;1.30;;;12.20;90.50;;;;;;5018055;28;20025;-69
2021/05/12 04:37:33;;;;;;;2.17;1.15;;;12.10;90.50;;;;;;5017261;28;20032;-69
2021/05/12 04:39:59;;;;;;;4.38;1.48;;;12.10;90.50;;;;;;5017954;28;20022;-69
2021/05/12 04:42:24;;;;;;;2.95;1.30;;;12.10;90.50;;;;;;5035550;28;20083;-69
2021/05/12 04:44:52;;;;;;;3.45;1.60;;;12.10;90.50;;;;;;5017123;28;20029;-69
2021/05/12 04:47:18;;;;;;;6.07;1.70;;;12.00;90.40;;;;;;5033436;28;20049;-69
2021/05/12 04:49:44;;;;;;;1.83;1.40;;;12.00;90.40;;;;;;5016980;28;20029;-69
2021/05/12 04:52:09;;;;;;;1.88;1.20;;;11.90;90.30;;;;;;5017516;28;20359;-69
2021/05/12 04:54:35;;;;;;;2.80;1.40;;;12.00;90.40;;;;;;5016928;28;20425;-69
2021/05/12 04:57:00;;;;;;;2.03;1.33;;;12.00;90.50;;;;;;5035258;28;20036;-69
2021/05/12 04:59:26;;;;;;;3.42;1.80;;;11.90;90.50;;;;;;5033921;28;20034;-69
2021/05/12 05:01:52;;;;;;;3.90;1.63;;;11.90;90.60;;;;;;5034807;28;20518;-68
2021/05/12 05:04:18;;;;;;;4.88;2.28;;;11.90;90.30;;;;;;5035420;28;20033;-69
2021/05/12 05:06:44;;;;;;;2.13;1.73;;;11.90;90.40;;;;;;5034451;28;20053;-69
2021/05/12 05:09:09;;;;;;;4.95;2.00;;;11.90;90.50;;;;;;5035056;28;20036;-68
2021/05/12 05:11:35;;;;;;;4.47;1.50;;;11.90;90.40;;;;;;5016619;28;20359;-68
2021/05/12 05:14:01;;;;;;;3.70;2.03;;;11.90;90.50;;;;;;5017353;28;20040;-69
2021/05/12 05:16:27;;;;;;;4.80;1.85;;;11.90;90.40;;;;;;5017126;28;20048;-68
2021/05/12 05:18:53;;;;;;;5.70;2.10;;;11.90;90.50;;;;;;5016436;28;20029;-69
2021/05/12 05:21:19;;;;;;;4.10;1.70;;;12.00;90.40;;;;;;5016803;28;20060;-69
2021/05/12 05:23:44;;;;;;;5.75;2.00;;;12.00;90.30;;;;;;5034208;28;20032;-68
2021/05/12 05:26:10;;;;;;;6.00;2.35;;;12.00;90.30;;;;;;5016972;28;20421;-69
2021/05/12 05:28:36;;;;;;;4.50;2.28;;;12.00;90.20;;;;;;5033834;28;20025;-69
2021/05/12 05:31:01;;;;;;;8.02;2.40;;;11.90;90.30;;;;;;5016944;28;20068;-69
2021/05/12 05:33:27;;;;;;;5.90;1.90;;;12.00;90.00;;;;;;5034543;28;20029;-68
2021/05/12 05:35:53;;;;;;;3.28;1.60;;;12.00;90.20;;;;;;5033756;28;20041;-69
2021/05/12 05:38:19;;;;;;;2.30;1.23;;;11.90;90.20;;;;;;5016756;28;20466;-69
2021/05/12 05:40:45;;;;;;;3.58;1.50;;;11.90;89.90;;;;;;5016073;28;20446;-69
2021/05/12 05:43:12;;;;;;;3.35;1.48;;;11.90;90.10;;;;;;5015807;28;20116;-69
2021/05/12 05:45:41;;;;;;;2.75;1.52;;;11.90;89.90;;;;;;5015609;28;20029;-69
2021/05/12 05:48:07;;;;;;;2.55;1.58;;;12.00;89.90;;;;;;5016578;28;20087;-68
2021/05/12 05:50:33;;;;;;;2.55;1.58;;;12.00;90.10;;;;;;5032639;28;20486;-72
2021/05/12 05:52:59;;;;;;;2.95;1.58;;;12.00;89.90;;;;;;5016670;28;20036;-69
2021/05/12 05:55:25;;;;;;;4.10;1.60;;;12.00;89.80;;;;;;5033015;28;20494;-69
2021/05/12 05:57:51;;;;;;;2.78;1.20;;;11.90;89.50;;;;;;5015845;28;20406;-69
2021/05/12 06:00:18;;;;;;;2.33;1.20;;;11.90;89.60;;;;;;5016434;28;20032;-69
2021/05/12 06:02:44;;;;;;;3.72;1.55;;;11.90;89.80;;;;;;5033509;28;20034;-69
2021/05/12 06:05:11;;;;;;;4.22;1.30;;;11.90;89.70;;;;;;5033717;28;20022;-69
2021/05/12 06:07:40;;;;;;;3.33;1.30;;;11.90;89.70;;;;;;5033347;28;20112;-69
2021/05/12 06:10:08;;;;;;;3.97;1.23;;;12.00;90.00;;;;;;5016227;28;20382;-69
2021/05/12 06:12:34;;;;;;;2.13;1.17;;;12.00;89.90;;;;;;5032202;28;20120;-69
2021/05/12 06:15:00;;;;;;;3.22;1.40;;;12.00;89.80;;;;;;5015631;28;20085;-69
2021/05/12 06:17:26;;;;;;;3.08;1.33;;;12.00;89.40;;;;;;5016177;28;20029;-69
2021/05/12 06:19:53;;;;;;;1.98;1.40;;;12.00;89.60;;;;;;5015315;28;20351;-69
2021/05/12 06:22:18;;;;;;;4.88;1.17;;;12.00;89.50;;;;;;5015913;28;20053;-71
2021/05/12 06:24:44;;;;;;;4.63;1.63;;;12.00;89.60;;;;;;5033285;28;20061;-69
2021/05/12 06:27:10;;;;;;;2.30;1.17;;;12.10;89.60;;;;;;5033617;28;20409;-69
2021/05/12 06:29:38;;;;;;;3.53;1.38;;;12.10;89.30;;;;;;5015288;28;20140;-70
2021/05/12 06:32:05;;;;;;;3.05;1.05;;;12.00;89.10;;;;;;5015777;28;20425;-69
2021/05/12 06:34:32;;;;;;;4.15;1.30;;;12.00;89.30;;;;;;5015741;28;20029;-69
2021/05/12 06:36:58;;;;;;;2.85;1.20;;;12.10;89.20;;;;;;5015051;28;20022;-69
2021/05/12 06:39:24;;;;;;;4.38;1.00;;;12.10;89.20;;;;;;5033361;28;20467;-69
2021/05/12 06:41:49;;;;;;;2.08;1.00;;;12.10;88.80;;;;;;5014719;28;20109;-69
2021/05/12 06:44:15;;;;;;;1.67;0.90;;;12.10;89.20;;;;;;5015723;28;20120;-69
2021/05/12 06:46:40;;;;;;;2.75;1.00;;;12.00;89.10;;;;;;5032557;28;20050;-69
2021/05/12 06:49:06;;;;;;;2.03;0.60;;;12.00;88.80;;;;;;5015458;28;20498;-69
2021/05/12 06:51:35;;;;;;;2.08;1.00;;;12.00;89.00;;;;;;5033323;28;20022;-69
2021/05/12 06:54:01;;;;;;;1.75;0.98;;;12.00;89.20;;;;;;5014320;28;20025;-69
2021/05/12 06:56:27;;;;;;;1.77;0.70;;;12.00;89.10;;;;;;5033474;28;20041;-69
2021/05/12 06:58:52;;;;;;;2.45;0.95;;;12.00;89.20;;;;;;5014734;28;20032;-69
2021/05/12 07:01:20;;;;;;;3.50;0.85;;;12.00;89.00;;;;;;5033067;28;20382;-69
2021/05/12 07:03:45;;;;;;;1.95;0.90;;;12.00;89.00;;;;;;5014699;28;20095;-69
2021/05/12 07:06:11;;;;;;;2.25;0.90;;;12.00;89.10;;;;;;5033183;28;20421;-69
2021/05/12 07:08:37;;;;;;;3.58;0.73;;;12.00;89.10;;;;;;5015184;28;20119;-69
2021/05/12 07:11:04;;;;;;;1.25;0.80;;;12.00;89.10;;;;;;5032497;28;20467;-69
2021/05/12 07:13:30;;;;;;;2.42;0.77;;;11.90;89.10;;;;;;5015064;28;20033;-69
2021/05/12 07:15:56;;;;;;;3.75;1.10;;;11.90;89.10;;;;;;5014467;28;20536;-69
2021/05/12 07:18:22;;;;;;;1.83;0.77;;;11.90;89.10;;;;;;5014933;28;20029;-69
2021/05/12 07:20:48;;;;;;;2.65;0.80;;;11.90;89.20;;;;;;5030885;28;20029;-69
2021/05/12 07:23:20;;;;;;;3.50;0.90;;;11.90;89.30;;;;;;5015091;28;20037;-69
2021/05/12 07:25:47;;;;;;;2.05;0.80;;;11.90;89.70;;;;;;5014512;28;20028;-69
2021/05/12 07:28:14;;;;;;;2.95;0.88;;;11.90;89.70;;;;;;5014844;28;20486;-69
2021/05/12 07:30:40;;;;;;;1.77;0.82;;;11.90;89.90;;;;;;5014319;28;20527;-72
2021/05/12 07:33:06;;;;;;;1.15;0.68;;;11.90;90.00;;;;;;5032619;28;20040;-69
2021/05/12 07:35:32;;;;;;;2.78;1.08;;;11.90;90.00;;;;;;5032459;28;20029;-69
2021/05/12 07:37:57;;;;;;;2.45;1.30;;;11.90;90.00;;;;;;5014207;28;20053;-69
2021/05/12 07:40:23;;;;;;;2.95;0.80;;;12.00;90.10;;;;;;5032470;28;20111;-69
2021/05/12 07:42:50;;;;;;;4.30;1.35;;;12.00;89.90;;;;;;5031826;28;20033;-70
2021/05/12 07:45:16;;;;;;;4.18;1.00;;;11.90;90.10;;;;;;5030725;28;20108;-69
2021/05/12 07:47:42;;;;;;;1.73;1.00;;;11.90;90.10;;;;;;5013654;28;20045;-70
2021/05/12 07:50:10;;;;;;;2.22;0.98;;;11.90;90.20;;;;;;5031268;28;20496;-69
2021/05/12 07:52:36;;;;;;;5.47;1.20;;;12.00;90.20;;;;;;5014771;28;20025;-69
2021/05/12 07:55:02;;;;;;;3.83;1.25;;;12.00;89.80;;;;;;5031411;28;20037;-69
2021/05/12 07:57:28;;;;;;;3.55;1.10;;;11.90;89.50;;;;;;5032303;28;20025;-69
2021/05/12 07:59:53;;;;;;;4.28;1.23;;;12.00;89.70;;;;;;5013988;28;20425;-69
2021/05/12 08:02:19;;;;;;;3.38;1.05;;;12.00;89.80;;;;;;5014623;28;20055;-70
2021/05/12 08:04:45;;;;;;;3.75;1.17;;;12.00;89.60;;;;;;5014004;28;20036;-69
2021/05/12 08:07:10;;;;;;;3.90;1.10;;;12.00;90.00;;;;;;5018351;28;20025;-69
2021/05/12 08:09:36;;;;;;;1.13;0.70;;;12.00;89.50;;;;;;5036165;28;20100;-69
2021/05/12 08:12:02;;;;;;;1.63;0.98;;;12.00;89.30;;;;;;5035534;28;20152;-68
2021/05/12 08:14:28;;;;;;;3.70;1.17;;;12.10;89.50;;;;;;5036175;28;20029;-71
2021/05/12 08:16:53;;;;;;;3.00;1.27;;;12.10;89.50;;;;;;5034152;28;20172;-71
2021/05/12 08:19:19;;;;;;;2.75;1.08;;;12.20;89.30;;;;;;5018161;28;20029;-71
2021/05/12 08:21:46;;;;;;;2.33;1.08;;;12.30;89.10;;;;;;5035352;28;20032;-72
2021/05/12 08:24:12;;;;;;;2.67;1.15;;;12.30;88.70;;;;;;5018107;28;20029;-71
2021/05/12 08:26:37;;;;;;;2.47;1.33;;;12.30;88.10;;;;;;5018057;28;20041;-69
2021/05/12 08:29:06;;;;;;;2.97;1.30;;;12.40;88.30;;;;;;5017495;28;20029;-69
2021/05/12 08:31:32;;;;;;;2.13;1.20;;;12.40;88.10;;;;;;5035741;28;20025;-69
2021/05/12 08:33:57;;;;;;;2.42;1.13;;;12.40;87.80;;;;;;5035013;28;20029;-69
2021/05/12 08:36:23;;;;;;;2.30;1.25;;;12.50;87.70;;;;;;5017897;28;20037;-69
2021/05/12 08:38:49;;;;;;;1.45;1.00;;;12.60;87.90;;;;;;5017195;28;20056;-69
2021/05/12 08:41:16;;;;;;;1.45;1.15;;;12.50;87.10;;;;;;5035543;28;20084;-69
2021/05/12 08:43:42;;;;;;;2.00;1.20;;;12.60;87.40;;;;;;5035559;28;20030;-68
2021/05/12 08:46:14;;;;;;;1.63;1.23;;;12.70;87.60;;;;;;5017052;28;20075;-69
2021/05/12 08:48:42;;;;;;;2.75;1.10;;;12.70;87.30;;;;;;5017699;28;20025;-69
2021/05/12 08:51:09;;;;;;;2.65;1.13;;;12.80;87.30;;;;;;5017065;28;20037;-69
2021/05/12 08:53:35;;;;;;;2.95;1.40;;;12.80;86.80;;;;;;5017562;28;20378;-69
2021/05/12 08:56:02;;;;;;;4.78;1.27;;;12.80;86.20;;;;;;5034391;28;20034;-69
2021/05/12 08:58:28;;;;;;;6.75;1.52;;;12.90;86.30;;;;;;5035242;28;20053;-69
2021/05/12 09:00:54;;;;;;;3.38;1.30;;;12.90;86.10;;;;;;5033300;28;20462;-69
2021/05/12 09:03:20;;;;;;;3.13;1.25;;;12.90;85.70;;;;;;5035383;28;20053;-69
2021/05/12 09:05:47;;;;;;;2.55;1.30;;;12.90;86.10;;;;;;5016595;28;20061;-69
2021/05/12 09:08:12;;;;;;;2.20;1.30;;;12.90;85.60;;;;;;5017241;28;20026;-69
2021/05/12 09:10:38;;;;;;;2.20;1.30;;;13.00;86.00;;;;;;5034664;28;20040;-69
2021/05/12 09:13:04;;;;;;;4.47;1.20;;;13.00;85.80;;;;;;5034263;28;20451;-69
2021/05/12 09:15:30;;;;;;;3.40;1.40;;;13.00;85.80;;;;;;5017135;28;20042;-69
2021/05/12 09:18:00;;;;;;;4.05;1.17;;;12.90;86.30;;;;;;5015230;28;20029;-69
2021/05/12 09:20:29;;;;;;;3.00;1.25;;;12.90;86.40;;;;;;5017227;28;20025;-69
2021/05/12 09:23:00;;;;;;;2.30;1.20;;;12.90;86.50;;;;;;5034146;28;20139;-69
2021/05/12 09:25:26;;;;;;;;;;;12.90;86.40;;;;;;5017321;28;20045;-69
2021/05/12 09:28:07;;;;;;;2.97;1.50;;;13.00;86.30;;;;;;5033798;28;19905;-69
2021/05/12 09:30:36;;;;;;;1.98;1.15;;;13.00;85.80;;;;;;5016873;28;20083;-69
2021/05/12 09:33:02;;;;;;;3.10;1.30;;;12.90;85.40;;;;;;5016193;28;20033;-69
2021/05/12 09:35:28;;;;;;;3.67;1.52;;;12.90;85.60;;;;;;5016774;28;20521;-69
2021/05/12 09:37:53;;;;;;;2.33;1.25;;;12.90;85.90;;;;;;5016197;28;20398;-69
2021/05/12 09:40:21;;;;;;;3.78;1.33;;;13.00;85.30;;;;;;5016955;28;20072;-69
2021/05/12 09:43:01;;;;;;;2.97;1.45;;;13.00;84.90;;;;;;5034200;28;20056;-73
2021/05/12 09:45:30;;;;;;;2.00;1.00;;;13.10;84.00;;;;;;5016488;28;20382;-69
2021/05/12 09:47:58;;;;;;;3.35;1.50;;;13.10;84.70;;;;;;5016159;28;20033;-69
2021/05/12 09:50:27;;;;;;;2.38;1.20;;;13.30;83.90;;;;;;5016763;28;20112;-70
2021/05/12 09:52:57;;;;;;;1.70;1.33;;;13.40;82.90;;;;;;5015771;28;20470;-70
2021/05/12 09:55:47;;;;;;;2.92;1.50;;;13.40;82.70;;;;;;5016060;28;20029;-70
2021/05/12 09:58:13;;;;;;;3.90;1.67;;;13.50;82.30;;;;;;5015894;28;20057;-70
2021/05/12 10:00:40;;;;;;;6.25;1.40;;;13.50;81.80;;;;;;5033842;28;20029;-70
2021/05/12 10:03:09;;;;;;;5.00;1.30;;;13.50;82.60;;;;;;5015761;28;20044;-69
2021/05/12 10:05:54;;;;;;;2.17;1.30;;;13.50;82.70;;;;;;5016350;28;20467;-70
2021/05/12 10:08:25;;;;;;;2.42;1.35;;;13.60;82.90;;;;;;5033492;28;20377;-70
2021/05/12 10:11:07;;;;;;;3.45;1.40;;;13.60;81.90;;;;;;5033304;28;20032;-71
2021/05/12 10:13:35;;;;;;;4.18;1.42;;;13.60;79.90;;;;;;5033889;28;20033;-71
2021/05/12 10:16:03;;;;;;;2.72;1.30;;;13.70;79.30;;;;;;5033209;28;20091;-71
2021/05/12 10:18:30;;;;;;;3.25;1.38;;;13.70;78.50;;;;;;5033754;28;20021;-71
2021/05/12 10:21:00;;;;;;;2.20;1.27;;;13.70;79.20;;;;;;5032833;28;20070;-71
2021/05/12 10:23:26;;;;;;;2.40;1.30;;;13.70;78.60;;;;;;5016177;28;20079;-70
2021/05/12 10:25:53;;;;;;;5.53;1.50;;;13.80;78.50;;;;;;5015323;28;20112;-70
2021/05/12 10:28:19;;;;;;;2.55;1.15;;;13.90;77.80;;;;;;5033258;28;20029;-70
2021/05/12 10:30:49;;;;;;;3.40;1.17;;;13.90;77.90;;;;;;5033202;28;20083;-70
2021/05/12 10:33:16;;;;;;;3.08;1.30;;;14.00;77.80;;;;;;5033123;28;20386;-71
2021/05/12 10:35:43;;;;;;;3.20;1.40;;;14.10;77.70;;;;;;5015644;28;20033;-70
2021/05/12 10:38:44;;;;;;;3.70;1.17;;;14.10;77.50;;;;;;5015026;28;20029;-70
2021/05/12 10:41:36;;;;;;;3.45;1.42;;;14.20;77.20;;;;;;5015247;28;20044;-71
2021/05/12 10:44:08;;;;;;;1.35;0.90;;;14.30;76.60;;;;;;5014972;28;20032;-70
2021/05/12 10:47:05;;;;;;;3.60;1.30;;;14.40;77.30;;;;;;5015366;28;20077;-70
2021/05/12 10:49:31;;;;;;;4.15;1.35;;;14.50;76.20;;;;;;5032983;28;20371;-71
2021/05/12 10:51:57;;;;;;;4.63;1.40;;;14.70;75.10;;;;;;5032578;28;20033;-71
2021/05/12 10:54:52;;;;;;;2.83;1.48;;;14.70;74.40;;;;;;5031528;28;20075;-70
2021/05/12 10:57:38;;;;;;;3.17;1.63;;;14.80;74.50;;;;;;5015650;28;20048;-70
2021/05/12 11:00:05;;;;;;;3.22;1.48;;;14.90;74.10;;;;;;5032131;28;20032;-71
2021/05/12 11:02:51;;;;;;;3.10;1.35;;;15.00;74.60;;;;;;5015413;28;20072;-71
2021/05/12 11:05:18;;;;;;;3.47;1.40;;;15.20;72.60;;;;;;5004913;28;20482;-70
2021/05/12 11:08:13;;;;;;;3.58;1.40;;;15.30;73.90;;;;;;5015162;28;20036;-70
2021/05/12 11:10:59;;;;;;;2.97;1.15;;;15.40;73.00;;;;;;5014851;28;20029;-71
2021/05/12 11:13:27;;;;;;;2.47;1.45;;;15.50;72.70;;;;;;5031765;28;20034;-71
2021/05/12 11:16:03;;;;;;;2.33;1.25;;;15.60;72.80;;;;;;5032836;28;20041;-74
2021/05/12 11:18:39;;;;;;;7.63;1.67;;;15.70;73.60;;;;;;5032856;28;20071;-71
2021/05/12 11:21:22;;;;;;;3.70;1.33;;;15.70;71.60;;;;;;5014514;28;20041;-70
2021/05/12 11:24:07;;;;;;;3.30;1.40;;;15.60;70.50;;;;;;5014699;28;20069;-70
2021/05/12 11:32:00;;;;;;;2.15;1.30;;;15.90;71.60;;;;;;5031911;28;20075;-71
2021/05/12 11:34:26;;;;;;;3.38;1.38;;;16.10;72.50;;;;;;5032431;28;20021;-71
2021/05/12 11:37:16;;;;;;;2.88;1.40;;;16.00;72.10;;;;;;5032171;28;20021;-71
2021/05/12 11:39:47;;;;;;;1.92;0.88;;;16.00;71.50;;;;;;5014438;28;20025;-71
2021/05/12 11:42:30;;;;;;;5.23;1.43;;;16.00;71.00;;;;;;5031435;28;20482;-71
2021/05/12 11:45:10;;;;;;;2.20;1.40;;;16.00;71.30;;;;;;5014114;28;20029;-71
2021/05/12 11:47:39;;;;;;;3.58;1.38;;;16.10;69.80;;;;;;5032126;28;20087;-71
2021/05/12 11:50:21;;;;;;;3.47;1.40;;;16.30;70.30;;;;;;5014138;28;20029;-71
2021/05/12 11:52:46;;;;;;;;;;;16.40;70.40;;;;;;5032714;28;20450;-70
2021/05/12 11:55:12;;;;;;;4.28;1.52;;;16.50;68.10;;;;;;5031722;28;19916;-71
2021/05/12 11:57:38;;;;;;;5.45;1.40;;;16.50;68.00;;;;;;5014873;28;20033;-70
2021/05/12 12:00:14;;;;;;;2.78;1.30;;;16.50;68.60;;;;;;5013943;28;20413;-71
2021/05/12 12:02:40;;;;;;;4.82;1.20;;;16.70;68.70;;;;;;5014615;28;20470;-71
2021/05/12 12:05:07;;;;;;;3.78;1.65;;;16.90;68.70;;;;;;5031693;28;20026;-71
2021/05/12 12:07:33;;;;;;;3.78;1.23;;;17.10;68.30;;;;;;5014709;28;20025;-71
2021/05/12 12:10:06;;;;;;;5.53;1.05;;;17.20;66.80;;;;;;5013969;28;20083;-71
2021/05/12 12:12:34;;;;;;;3.15;1.30;;;17.20;66.10;;;;;;5014135;28;20164;-71
2021/05/12 12:15:07;;;;;;;4.28;1.10;;;17.40;64.70;;;;;;5013750;28;20033;-71
2021/05/12 12:17:33;;;;;;;3.83;1.10;;;17.50;65.50;;;;;;5014499;28;20029;-71
2021/05/12 12:20:04;;;;;;;1.98;1.20;;;17.60;65.60;;;;;;5031528;28;20021;-72
2021/05/12 12:22:30;;;;;;;2.55;1.10;;;17.70;64.40;;;;;;5014701;28;20025;-71
2021/05/12 12:24:55;;;;;;;2.50;1.05;;;17.80;63.20;;;;;;5030945;28;20169;-71
2021/05/12 12:27:21;;;;;;;3.65;1.13;;;17.90;62.00;;;;;;5031856;28;20494;-71
2021/05/12 12:29:51;;;;;;;1.85;0.82;;;18.10;62.30;;;;;;5032071;28;20057;-71
2021/05/12 12:32:17;;;;;;;3.50;1.20;;;18.20;61.10;;;;;;5030003;28;20561;-71
2021/05/12 12:34:46;;;;;;;3.05;1.10;;;18.10;59.70;;;;;;5030921;28;20516;-71
2021/05/12 12:37:17;;;;;;;1.52;0.73;;;18.00;60.90;;;;;;5013734;28;20047;-71
2021/05/12 12:39:51;;;;;;;1.92;0.70;;;18.10;60.50;;;;;;5014244;28;20025;-71
2021/05/12 12:42:31;;;;;;;3.70;0.88;;;18.30;60.30;;;;;;5031096;28;20481;-71
2021/05/12 12:45:03;;;;;;;3.42;1.00;;;18.40;57.00;;;;;;5032025;28;20108;-71
2021/05/12 12:47:29;;;;;;;0.90;0.68;;;18.40;57.60;;;;;;5031493;28;20053;-71
2021/05/12 12:49:55;;;;;;;3.42;0.65;;;18.30;56.80;;;;;;5014327;28;20030;-71
2021/05/12 12:52:41;;;;;;;1.80;0.68;;;18.40;57.50;;;;;;5015445;28;20048;-71
2021/05/12 12:55:25;;;;;;;6.10;1.05;;;18.40;57.30;;;;;;5017072;28;20101;-71
2021/05/12 12:58:02;;;;;;;2.63;0.80;;;18.30;59.00;;;;;;5035094;28;20072;-71